sensor_id;sensor_type;location;lat;lon;timestamp;temperature;humidity
64111;DHT22;50401;48.188;11.566;2022-09-29T00:01:49;8.39;88.72
64111;DHT22;50401;48.188;11.566;2022-09-29T00:04:14;8.37;88.74
64111;DHT22;50401;48.188;11.566;2022-09-29T00:06:39;8.49;88.78
64111;DHT22;50401;48.188;11.566;2022-09-29T00:09:05;8.50;88.65
64111;DHT22;50401;48.188;11.566;2022-09-29T00:11:30;8.52;88.74
64111;DHT22;50401;48.188;11.566;2022-09-29T00:13:55;8.54;88.41
64111;DHT22;50401;48.188;11.566;2022-09-29T00:16:21;8.59;88.37
64111;DHT22;50401;48.188;11.566;2022-09-29T00:18:46;8.50;88.40
64111;DHT22;50401;48.188;11.566;2022-09-29T00:21:15;8.42;88.36
64111;DHT22;50401;48.188;11.566;2022-09-29T00:23:41;8.53;88.30
64111;DHT22;50401;48.188;11.566;2022-09-29T00:28:35;8.64;88.55
64111;DHT22;50401;48.188;11.566;2022-09-29T00:31:01;8.68;88.34
64111;DHT22;50401;48.188;11.566;2022-09-29T00:33:27;8.65;88.28
64111;DHT22;50401;48.188;11.566;2022-09-29T00:35:56;8.64;88.42
64111;DHT22;50401;48.188;11.566;2022-09-29T00:38:23;8.71;88.29
64111;DHT22;50401;48.188;11.566;2022-09-29T00:40:48;8.61;88.11
64111;DHT22;50401;48.188;11.566;2022-09-29T00:43:15;8.63;88.07
64111;DHT22;50401;48.188;11.566;2022-09-29T00:45:43;8.70;87.97
64111;DHT22;50401;48.188;11.566;2022-09-29T00:48:10;8.80;87.91
64111;DHT22;50401;48.188;11.566;2022-09-29T00:50:40;8.84;87.75
64111;DHT22;50401;48.188;11.566;2022-09-29T00:53:07;8.81;87.73
64111;DHT22;50401;48.188;11.566;2022-09-29T00:55:37;8.82;87.51
64111;DHT22;50401;48.188;11.566;2022-09-29T00:58:06;8.63;87.40
64111;DHT22;50401;48.188;11.566;2022-09-29T01:00:34;8.67;87.43
64111;DHT22;50401;48.188;11.566;2022-09-29T01:03:03;8.63;87.69
64111;DHT22;50401;48.188;11.566;2022-09-29T01:05:34;8.57;88.05
64111;DHT22;50401;48.188;11.566;2022-09-29T01:08:05;8.67;87.93
64111;DHT22;50401;48.188;11.566;2022-09-29T01:10:33;8.64;87.14
64111;DHT22;50401;48.188;11.566;2022-09-29T01:12:58;8.59;87.10
64111;DHT22;50401;48.188;11.566;2022-09-29T01:15:24;8.67;87.08
64111;DHT22;50401;48.188;11.566;2022-09-29T01:17:49;8.65;87.24
64111;DHT22;50401;48.188;11.566;2022-09-29T01:20:18;8.63;87.04
64111;DHT22;50401;48.188;11.566;2022-09-29T01:35:53;8.43;87.17
64111;DHT22;50401;48.188;11.566;2022-09-29T01:38:39;8.42;87.18
64111;DHT22;50401;48.188;11.566;2022-09-29T01:46:01;8.42;87.57
64111;DHT22;50401;48.188;11.566;2022-09-29T01:48:29;8.49;87.32
64111;DHT22;50401;48.188;11.566;2022-09-29T01:50:58;8.57;87.18
64111;DHT22;50401;48.188;11.566;2022-09-29T01:53:29;8.45;86.51
64111;DHT22;50401;48.188;11.566;2022-09-29T01:56:00;8.46;87.41
64111;DHT22;50401;48.188;11.566;2022-09-29T01:58:39;8.50;87.73
64111;DHT22;50401;48.188;11.566;2022-09-29T02:01:08;8.50;87.73
64111;DHT22;50401;48.188;11.566;2022-09-29T02:03:39;8.33;87.34
64111;DHT22;50401;48.188;11.566;2022-09-29T02:06:12;8.32;87.64
64111;DHT22;50401;48.188;11.566;2022-09-29T02:08:41;8.28;88.03
64111;DHT22;50401;48.188;11.566;2022-09-29T02:11:11;8.26;88.37
64111;DHT22;50401;48.188;11.566;2022-09-29T02:13:41;8.29;88.24
64111;DHT22;50401;48.188;11.566;2022-09-29T02:16:10;8.40;88.08
64111;DHT22;50401;48.188;11.566;2022-09-29T02:18:39;8.32;88.18
64111;DHT22;50401;48.188;11.566;2022-09-29T02:21:07;8.43;88.43
64111;DHT22;50401;48.188;11.566;2022-09-29T02:23:33;8.26;88.36
64111;DHT22;50401;48.188;11.566;2022-09-29T02:25:58;8.22;88.65
64111;DHT22;50401;48.188;11.566;2022-09-29T02:28:24;8.16;88.91
64111;DHT22;50401;48.188;11.566;2022-09-29T02:30:49;8.19;89.06
64111;DHT22;50401;48.188;11.566;2022-09-29T02:33:21;8.32;88.99
64111;DHT22;50401;48.188;11.566;2022-09-29T02:35:59;8.33;88.76
64111;DHT22;50401;48.188;11.566;2022-09-29T02:38:30;8.35;88.60
64111;DHT22;50401;48.188;11.566;2022-09-29T02:41:14;8.40;88.47
64111;DHT22;50401;48.188;11.566;2022-09-29T02:46:16;8.40;88.37
64111;DHT22;50401;48.188;11.566;2022-09-29T02:49:04;8.33;88.67
64111;DHT22;50401;48.188;11.566;2022-09-29T02:54:06;8.32;88.00
64111;DHT22;50401;48.188;11.566;2022-09-29T02:56:37;8.30;88.21
64111;DHT22;50401;48.188;11.566;2022-09-29T02:59:13;8.29;87.98
64111;DHT22;50401;48.188;11.566;2022-09-29T03:01:46;8.32;87.98
64111;DHT22;50401;48.188;11.566;2022-09-29T03:04:12;8.22;88.06
64111;DHT22;50401;48.188;11.566;2022-09-29T03:06:37;8.36;88.08
64111;DHT22;50401;48.188;11.566;2022-09-29T03:09:02;8.32;87.77
64111;DHT22;50401;48.188;11.566;2022-09-29T03:11:28;8.19;88.13
64111;DHT22;50401;48.188;11.566;2022-09-29T03:13:53;8.16;88.45
64111;DHT22;50401;48.188;11.566;2022-09-29T03:16:19;8.16;88.42
64111;DHT22;50401;48.188;11.566;2022-09-29T03:18:44;8.19;88.28
64111;DHT22;50401;48.188;11.566;2022-09-29T03:21:09;8.22;88.12
64111;DHT22;50401;48.188;11.566;2022-09-29T03:23:35;8.18;88.42
64111;DHT22;50401;48.188;11.566;2022-09-29T03:26:00;8.28;88.47
64111;DHT22;50401;48.188;11.566;2022-09-29T03:28:25;8.33;88.14
64111;DHT22;50401;48.188;11.566;2022-09-29T03:30:50;8.35;87.85
64111;DHT22;50401;48.188;11.566;2022-09-29T03:33:16;8.39;87.80
64111;DHT22;50401;48.188;11.566;2022-09-29T03:35:42;8.54;87.67
64111;DHT22;50401;48.188;11.566;2022-09-29T03:38:07;8.63;87.27
64111;DHT22;50401;48.188;11.566;2022-09-29T03:40:32;8.56;86.99
64111;DHT22;50401;48.188;11.566;2022-09-29T03:42:58;8.46;86.70
64111;DHT22;50401;48.188;11.566;2022-09-29T03:45:23;8.54;86.57
64111;DHT22;50401;48.188;11.566;2022-09-29T03:47:48;8.47;86.13
64111;DHT22;50401;48.188;11.566;2022-09-29T03:50:14;8.60;86.30
64111;DHT22;50401;48.188;11.566;2022-09-29T03:52:39;8.57;86.52
64111;DHT22;50401;48.188;11.566;2022-09-29T03:55:04;8.43;86.64
64111;DHT22;50401;48.188;11.566;2022-09-29T03:57:30;8.42;86.94
64111;DHT22;50401;48.188;11.566;2022-09-29T03:59:55;8.40;86.60
64111;DHT22;50401;48.188;11.566;2022-09-29T04:02:21;8.46;86.59
64111;DHT22;50401;48.188;11.566;2022-09-29T04:04:46;8.50;86.78
64111;DHT22;50401;48.188;11.566;2022-09-29T04:07:11;8.52;86.58
64111;DHT22;50401;48.188;11.566;2022-09-29T04:09:37;8.53;86.80
64111;DHT22;50401;48.188;11.566;2022-09-29T04:12:02;8.60;86.50
64111;DHT22;50401;48.188;11.566;2022-09-29T04:14:27;8.43;86.65
64111;DHT22;50401;48.188;11.566;2022-09-29T04:16:52;8.50;86.44
64111;DHT22;50401;48.188;11.566;2022-09-29T04:19:18;8.47;86.63
64111;DHT22;50401;48.188;11.566;2022-09-29T04:21:43;8.47;86.72
64111;DHT22;50401;48.188;11.566;2022-09-29T04:24:09;8.52;86.60
64111;DHT22;50401;48.188;11.566;2022-09-29T04:26:35;8.57;86.04
64111;DHT22;50401;48.188;11.566;2022-09-29T04:29:00;8.59;85.80
64111;DHT22;50401;48.188;11.566;2022-09-29T04:31:25;8.67;85.82
64111;DHT22;50401;48.188;11.566;2022-09-29T04:33:50;8.71;85.76
64111;DHT22;50401;48.188;11.566;2022-09-29T04:36:16;8.74;85.54
64111;DHT22;50401;48.188;11.566;2022-09-29T04:38:41;8.80;85.67
64111;DHT22;50401;48.188;11.566;2022-09-29T04:41:07;8.80;85.36
64111;DHT22;50401;48.188;11.566;2022-09-29T04:43:32;8.84;85.37
64111;DHT22;50401;48.188;11.566;2022-09-29T04:46:04;8.85;85.27
64111;DHT22;50401;48.188;11.566;2022-09-29T04:48:29;8.75;85.36
64111;DHT22;50401;48.188;11.566;2022-09-29T04:50:55;8.85;85.24
64111;DHT22;50401;48.188;11.566;2022-09-29T04:53:20;8.85;85.64
64111;DHT22;50401;48.188;11.566;2022-09-29T04:55:45;8.95;85.63
64111;DHT22;50401;48.188;11.566;2022-09-29T04:58:11;8.98;85.60
64111;DHT22;50401;48.188;11.566;2022-09-29T05:00:36;9.04;85.05
64111;DHT22;50401;48.188;11.566;2022-09-29T05:03:01;9.11;84.46
64111;DHT22;50401;48.188;11.566;2022-09-29T05:05:27;9.13;84.56
64111;DHT22;50401;48.188;11.566;2022-09-29T05:07:52;9.16;84.62
64111;DHT22;50401;48.188;11.566;2022-09-29T05:10:17;9.16;84.30
64111;DHT22;50401;48.188;11.566;2022-09-29T05:12:46;9.19;84.03
64111;DHT22;50401;48.188;11.566;2022-09-29T05:15:12;9.18;83.96
64111;DHT22;50401;48.188;11.566;2022-09-29T05:17:37;9.15;83.83
64111;DHT22;50401;48.188;11.566;2022-09-29T05:20:02;9.20;83.65
64111;DHT22;50401;48.188;11.566;2022-09-29T05:22:27;9.22;83.61
64111;DHT22;50401;48.188;11.566;2022-09-29T05:24:53;9.20;83.89
64111;DHT22;50401;48.188;11.566;2022-09-29T05:27:18;9.20;83.89
64111;DHT22;50401;48.188;11.566;2022-09-29T05:29:43;9.23;83.86
64111;DHT22;50401;48.188;11.566;2022-09-29T05:32:08;9.26;83.79
64111;DHT22;50401;48.188;11.566;2022-09-29T05:34:34;9.29;83.65
64111;DHT22;50401;48.188;11.566;2022-09-29T05:36:59;9.27;83.61
64111;DHT22;50401;48.188;11.566;2022-09-29T05:39:24;9.30;83.70
64111;DHT22;50401;48.188;11.566;2022-09-29T05:41:50;9.27;83.90
64111;DHT22;50401;48.188;11.566;2022-09-29T05:44:16;9.26;83.95
64111;DHT22;50401;48.188;11.566;2022-09-29T05:46:41;9.32;83.93
64111;DHT22;50401;48.188;11.566;2022-09-29T05:49:07;9.33;83.92
64111;DHT22;50401;48.188;11.566;2022-09-29T05:51:32;9.33;83.86
64111;DHT22;50401;48.188;11.566;2022-09-29T05:53:57;9.34;83.75
64111;DHT22;50401;48.188;11.566;2022-09-29T05:56:24;9.13;84.27
64111;DHT22;50401;48.188;11.566;2022-09-29T05:58:49;9.09;84.11
64111;DHT22;50401;48.188;11.566;2022-09-29T06:01:19;9.12;84.29
64111;DHT22;50401;48.188;11.566;2022-09-29T06:03:45;8.87;85.82
64111;DHT22;50401;48.188;11.566;2022-09-29T06:06:11;8.97;85.73
64111;DHT22;50401;48.188;11.566;2022-09-29T06:08:37;9.05;84.81
64111;DHT22;50401;48.188;11.566;2022-09-29T06:11:13;8.92;84.44
64111;DHT22;50401;48.188;11.566;2022-09-29T06:13:40;8.81;85.48
64111;DHT22;50401;48.188;11.566;2022-09-29T06:16:06;8.99;85.27
64111;DHT22;50401;48.188;11.566;2022-09-29T06:18:31;8.95;85.22
64111;DHT22;50401;48.188;11.566;2022-09-29T06:21:04;9.06;84.89
64111;DHT22;50401;48.188;11.566;2022-09-29T06:23:29;9.16;84.43
64111;DHT22;50401;48.188;11.566;2022-09-29T06:25:56;9.18;83.86
64111;DHT22;50401;48.188;11.566;2022-09-29T06:28:21;8.98;84.30
64111;DHT22;50401;48.188;11.566;2022-09-29T06:30:46;8.98;84.34
64111;DHT22;50401;48.188;11.566;2022-09-29T06:33:12;8.99;84.69
64111;DHT22;50401;48.188;11.566;2022-09-29T06:35:37;8.77;85.81
64111;DHT22;50401;48.188;11.566;2022-09-29T06:38:21;8.89;85.83
64111;DHT22;50401;48.188;11.566;2022-09-29T06:40:46;8.87;86.22
64111;DHT22;50401;48.188;11.566;2022-09-29T06:43:11;8.70;87.03
64111;DHT22;50401;48.188;11.566;2022-09-29T06:45:37;8.80;86.98
64111;DHT22;50401;48.188;11.566;2022-09-29T06:48:02;8.91;86.75
64111;DHT22;50401;48.188;11.566;2022-09-29T06:50:27;8.88;86.68
64111;DHT22;50401;48.188;11.566;2022-09-29T06:52:53;9.05;86.22
64111;DHT22;50401;48.188;11.566;2022-09-29T06:55:18;9.26;85.89
64111;DHT22;50401;48.188;11.566;2022-09-29T06:57:43;9.30;84.56
64111;DHT22;50401;48.188;11.566;2022-09-29T07:00:09;9.47;84.58
64111;DHT22;50401;48.188;11.566;2022-09-29T07:02:35;9.55;84.27
64111;DHT22;50401;48.188;11.566;2022-09-29T07:05:00;9.62;83.81
64111;DHT22;50401;48.188;11.566;2022-09-29T07:07:25;9.70;83.04
64111;DHT22;50401;48.188;11.566;2022-09-29T07:09:50;9.65;82.72
64111;DHT22;50401;48.188;11.566;2022-09-29T07:12:16;9.61;82.83
64111;DHT22;50401;48.188;11.566;2022-09-29T07:14:41;9.71;82.58
64111;DHT22;50401;48.188;11.566;2022-09-29T07:17:07;9.40;83.39
64111;DHT22;50401;48.188;11.566;2022-09-29T07:19:33;9.39;83.62
64111;DHT22;50401;48.188;11.566;2022-09-29T07:21:58;9.50;83.43
64111;DHT22;50401;48.188;11.566;2022-09-29T07:24:24;9.39;83.29
64111;DHT22;50401;48.188;11.566;2022-09-29T07:26:50;9.61;82.12
64111;DHT22;50401;48.188;11.566;2022-09-29T07:29:15;9.67;80.29
64111;DHT22;50401;48.188;11.566;2022-09-29T07:31:41;9.64;80.61
64111;DHT22;50401;48.188;11.566;2022-09-29T07:34:06;9.74;79.61
64111;DHT22;50401;48.188;11.566;2022-09-29T07:36:31;9.84;79.26
64111;DHT22;50401;48.188;11.566;2022-09-29T07:38:57;9.85;80.34
64111;DHT22;50401;48.188;11.566;2022-09-29T07:41:23;9.81;81.17
64111;DHT22;50401;48.188;11.566;2022-09-29T07:43:48;9.96;80.92
64111;DHT22;50401;48.188;11.566;2022-09-29T07:46:13;10.16;80.82
64111;DHT22;50401;48.188;11.566;2022-09-29T07:48:39;9.91;80.50
64111;DHT22;50401;48.188;11.566;2022-09-29T07:51:05;9.65;80.59
64111;DHT22;50401;48.188;11.566;2022-09-29T07:53:31;9.67;80.62
64111;DHT22;50401;48.188;11.566;2022-09-29T07:56:06;9.62;80.76
64111;DHT22;50401;48.188;11.566;2022-09-29T07:58:32;9.70;80.41
64111;DHT22;50401;48.188;11.566;2022-09-29T08:00:57;9.52;80.04
64111;DHT22;50401;48.188;11.566;2022-09-29T08:03:22;9.64;80.61
64111;DHT22;50401;48.188;11.566;2022-09-29T08:05:50;9.92;80.92
64111;DHT22;50401;48.188;11.566;2022-09-29T08:08:16;10.26;80.76
64111;DHT22;50401;48.188;11.566;2022-09-29T08:10:41;9.92;80.31
64111;DHT22;50401;48.188;11.566;2022-09-29T08:13:07;9.91;80.42
64111;DHT22;50401;48.188;11.566;2022-09-29T08:15:33;9.68;80.79
64111;DHT22;50401;48.188;11.566;2022-09-29T08:17:58;9.92;81.01
64111;DHT22;50401;48.188;11.566;2022-09-29T08:20:23;10.19;80.41
64111;DHT22;50401;48.188;11.566;2022-09-29T08:22:50;10.41;79.12
64111;DHT22;50401;48.188;11.566;2022-09-29T08:25:16;10.54;78.64
64111;DHT22;50401;48.188;11.566;2022-09-29T08:27:42;10.12;79.94
64111;DHT22;50401;48.188;11.566;2022-09-29T08:30:08;10.26;79.78
64111;DHT22;50401;48.188;11.566;2022-09-29T08:32:34;10.23;79.73
64111;DHT22;50401;48.188;11.566;2022-09-29T08:35:00;10.10;80.81
64111;DHT22;50401;48.188;11.566;2022-09-29T08:37:25;10.50;80.36
64111;DHT22;50401;48.188;11.566;2022-09-29T08:39:51;10.45;78.84
64111;DHT22;50401;48.188;11.566;2022-09-29T08:44:47;10.54;78.54
64111;DHT22;50401;48.188;11.566;2022-09-29T08:47:33;10.55;78.03
64111;DHT22;50401;48.188;11.566;2022-09-29T08:50:00;10.43;78.87
64111;DHT22;50401;48.188;11.566;2022-09-29T08:52:28;10.47;78.90
64111;DHT22;50401;48.188;11.566;2022-09-29T08:55:19;10.58;78.77
64111;DHT22;50401;48.188;11.566;2022-09-29T08:57:46;10.60;78.62
64111;DHT22;50401;48.188;11.566;2022-09-29T09:00:13;10.68;78.59
64111;DHT22;50401;48.188;11.566;2022-09-29T09:02:44;10.67;78.92
64111;DHT22;50401;48.188;11.566;2022-09-29T09:08:43;10.75;78.54
64111;DHT22;50401;48.188;11.566;2022-09-29T09:10:44;10.64;79.02
64111;DHT22;50401;48.188;11.566;2022-09-29T09:26:16;9.99;80.21
64111;DHT22;50401;48.188;11.566;2022-09-29T09:28:44;10.17;80.36
64111;DHT22;50401;48.188;11.566;2022-09-29T09:31:23;10.08;80.32
64111;DHT22;50401;48.188;11.566;2022-09-29T09:41:19;10.64;79.44
64111;DHT22;50401;48.188;11.566;2022-09-29T09:43:46;10.62;79.54
64111;DHT22;50401;48.188;11.566;2022-09-29T09:46:20;10.50;81.71
64111;DHT22;50401;48.188;11.566;2022-09-29T09:53:44;10.23;83.44
64111;DHT22;50401;48.188;11.566;2022-09-29T09:56:34;10.13;82.57
64111;DHT22;50401;48.188;11.566;2022-09-29T09:59:26;10.13;81.64
64111;DHT22;50401;48.188;11.566;2022-09-29T10:01:54;10.30;80.95
64111;DHT22;50401;48.188;11.566;2022-09-29T10:04:20;10.50;81.20
64111;DHT22;50401;48.188;11.566;2022-09-29T10:06:46;10.43;81.52
64111;DHT22;50401;48.188;11.566;2022-09-29T10:09:14;10.48;80.38
64111;DHT22;50401;48.188;11.566;2022-09-29T10:11:40;10.33;79.99
64111;DHT22;50401;48.188;11.566;2022-09-29T10:14:39;10.10;80.00
64111;DHT22;50401;48.188;11.566;2022-09-29T10:17:02;10.19;81.28
64111;DHT22;50401;48.188;11.566;2022-09-29T10:22:17;10.19;80.73
64111;DHT22;50401;48.188;11.566;2022-09-29T10:24:43;10.41;81.10
64111;DHT22;50401;48.188;11.566;2022-09-29T10:27:08;10.62;81.01
64111;DHT22;50401;48.188;11.566;2022-09-29T10:29:41;10.76;81.14
64111;DHT22;50401;48.188;11.566;2022-09-29T10:32:09;10.68;79.69
64111;DHT22;50401;48.188;11.566;2022-09-29T10:34:36;10.58;78.98
64111;DHT22;50401;48.188;11.566;2022-09-29T10:37:04;10.55;80.32
64111;DHT22;50401;48.188;11.566;2022-09-29T10:41:58;10.72;81.86
64111;DHT22;50401;48.188;11.566;2022-09-29T10:44:24;10.62;81.71
64111;DHT22;50401;48.188;11.566;2022-09-29T10:46:54;10.67;81.05
64111;DHT22;50401;48.188;11.566;2022-09-29T10:49:21;10.79;81.28
64111;DHT22;50401;48.188;11.566;2022-09-29T10:51:52;10.61;79.64
64111;DHT22;50401;48.188;11.566;2022-09-29T10:54:17;10.67;79.69
64111;DHT22;50401;48.188;11.566;2022-09-29T10:56:46;10.79;79.66
64111;DHT22;50401;48.188;11.566;2022-09-29T10:59:12;10.86;80.57
64111;DHT22;50401;48.188;11.566;2022-09-29T11:01:42;10.99;80.70
64111;DHT22;50401;48.188;11.566;2022-09-29T11:04:14;11.09;80.28
64111;DHT22;50401;48.188;11.566;2022-09-29T11:06:41;11.14;80.52
64111;DHT22;50401;48.188;11.566;2022-09-29T11:09:24;11.17;80.67
64111;DHT22;50401;48.188;11.566;2022-09-29T11:11:56;11.31;80.94
64111;DHT22;50401;48.188;11.566;2022-09-29T11:16:57;10.62;78.43
64111;DHT22;50401;48.188;11.566;2022-09-29T11:19:23;10.75;78.54
64111;DHT22;50401;48.188;11.566;2022-09-29T11:24:56;10.67;78.93
64111;DHT22;50401;48.188;11.566;2022-09-29T11:27:14;10.91;79.91
64111;DHT22;50401;48.188;11.566;2022-09-29T11:33:00;11.07;80.29
64111;DHT22;50401;48.188;11.566;2022-09-29T11:37:50;11.16;79.69
64111;DHT22;50401;48.188;11.566;2022-09-29T11:45:21;11.16;79.18
64111;DHT22;50401;48.188;11.566;2022-09-29T11:48:05;11.16;78.92
64111;DHT22;50401;48.188;11.566;2022-09-29T11:50:57;11.21;79.86
64111;DHT22;50401;48.188;11.566;2022-09-29T12:03:18;11.42;79.47
64111;DHT22;50401;48.188;11.566;2022-09-29T12:08:33;11.50;79.05
64111;DHT22;50401;48.188;11.566;2022-09-29T12:11:03;11.58;79.31
64111;DHT22;50401;48.188;11.566;2022-09-29T12:13:42;11.57;78.54
64111;DHT22;50401;48.188;11.566;2022-09-29T12:16:11;11.57;78.80
64111;DHT22;50401;48.188;11.566;2022-09-29T12:18:48;11.54;78.84
64111;DHT22;50401;48.188;11.566;2022-09-29T12:21:16;11.57;78.35
64111;DHT22;50401;48.188;11.566;2022-09-29T12:23:42;11.58;78.52
64111;DHT22;50401;48.188;11.566;2022-09-29T12:26:09;11.63;79.00
64111;DHT22;50401;48.188;11.566;2022-09-29T12:28:47;11.69;78.36
64111;DHT22;50401;48.188;11.566;2022-09-29T12:31:36;11.63;78.30
64111;DHT22;50401;48.188;11.566;2022-09-29T12:34:01;11.72;78.45
64111;DHT22;50401;48.188;11.566;2022-09-29T12:36:37;11.79;78.25
64111;DHT22;50401;48.188;11.566;2022-09-29T12:39:32;11.69;78.33
64111;DHT22;50401;48.188;11.566;2022-09-29T12:42:14;11.69;77.57
64111;DHT22;50401;48.188;11.566;2022-09-29T12:49:54;11.03;79.14
64111;DHT22;50401;48.188;11.566;2022-09-29T12:52:23;11.34;79.58
64111;DHT22;50401;48.188;11.566;2022-09-29T12:54:52;11.54;79.16
64111;DHT22;50401;48.188;11.566;2022-09-29T12:57:20;11.17;80.17
64111;DHT22;50401;48.188;11.566;2022-09-29T12:59:50;11.45;78.78
64111;DHT22;50401;48.188;11.566;2022-09-29T13:03:05;11.58;78.29
64111;DHT22;50401;48.188;11.566;2022-09-29T13:10:26;11.35;77.84
64111;DHT22;50401;48.188;11.566;2022-09-29T13:20:43;11.63;77.32
64111;DHT22;50401;48.188;11.566;2022-09-29T13:25:51;11.72;76.33
64111;DHT22;50401;48.188;11.566;2022-09-29T13:30:46;11.69;77.25
64111;DHT22;50401;48.188;11.566;2022-09-29T13:33:16;11.68;77.06
64111;DHT22;50401;48.188;11.566;2022-09-29T13:35:44;11.16;78.85
64111;DHT22;50401;48.188;11.566;2022-09-29T13:38:18;10.85;78.50
64111;DHT22;50401;48.188;11.566;2022-09-29T13:43:38;10.85;81.10
64111;DHT22;50401;48.188;11.566;2022-09-29T13:48:51;11.11;80.21
64111;DHT22;50401;48.188;11.566;2022-09-29T13:51:21;11.28;78.65
64111;DHT22;50401;48.188;11.566;2022-09-29T13:53:46;11.34;78.69
64111;DHT22;50401;48.188;11.566;2022-09-29T13:56:31;11.42;79.10
64111;DHT22;50401;48.188;11.566;2022-09-29T13:58:58;11.48;78.78
64111;DHT22;50401;48.188;11.566;2022-09-29T14:01:28;11.54;77.95
64111;DHT22;50401;48.188;11.566;2022-09-29T14:03:54;10.92;78.44
64111;DHT22;50401;48.188;11.566;2022-09-29T14:06:20;10.61;79.35
64111;DHT22;50401;48.188;11.566;2022-09-29T14:13:54;10.57;80.49
64111;DHT22;50401;48.188;11.566;2022-09-29T14:19:09;10.72;80.44
64111;DHT22;50401;48.188;11.566;2022-09-29T14:21:44;10.86;80.48
64111;DHT22;50401;48.188;11.566;2022-09-29T14:26:54;10.52;81.99
64111;DHT22;50401;48.188;11.566;2022-09-29T14:32:37;10.44;82.98
64111;DHT22;50401;48.188;11.566;2022-09-29T14:35:27;10.27;82.68
64111;DHT22;50401;48.188;11.566;2022-09-29T14:37:57;10.00;82.71
64111;DHT22;50401;48.188;11.566;2022-09-29T14:40:23;10.00;83.20
64111;DHT22;50401;48.188;11.566;2022-09-29T14:48:48;10.13;84.37
64111;DHT22;50401;48.188;11.566;2022-09-29T14:51:35;10.08;84.60
64111;DHT22;50401;48.188;11.566;2022-09-29T14:56:58;9.99;85.38
64111;DHT22;50401;48.188;11.566;2022-09-29T15:02:02;10.16;84.40
64111;DHT22;50401;48.188;11.566;2022-09-29T15:04:35;10.02;84.83
64111;DHT22;50401;48.188;11.566;2022-09-29T15:07:02;9.84;84.81
64111;DHT22;50401;48.188;11.566;2022-09-29T15:09:34;10.03;85.00
64111;DHT22;50401;48.188;11.566;2022-09-29T15:11:59;9.89;85.21
64111;DHT22;50401;48.188;11.566;2022-09-29T15:14:27;9.99;84.54
64111;DHT22;50401;48.188;11.566;2022-09-29T15:21:54;10.05;83.38
64111;DHT22;50401;48.188;11.566;2022-09-29T15:26:47;10.09;82.37
64111;DHT22;50401;48.188;11.566;2022-09-29T15:29:13;10.09;81.99
64111;DHT22;50401;48.188;11.566;2022-09-29T15:31:39;9.93;83.20
64111;DHT22;50401;48.188;11.566;2022-09-29T15:34:08;9.95;82.35
64111;DHT22;50401;48.188;11.566;2022-09-29T15:36:38;9.98;82.82
64111;DHT22;50401;48.188;11.566;2022-09-29T15:41:49;10.02;83.07
64111;DHT22;50401;48.188;11.566;2022-09-29T15:44:25;10.00;83.87
64111;DHT22;50401;48.188;11.566;2022-09-29T15:46:55;9.85;84.06
64111;DHT22;50401;48.188;11.566;2022-09-29T15:49:21;9.75;84.85
64111;DHT22;50401;48.188;11.566;2022-09-29T15:54:19;9.64;85.53
64111;DHT22;50401;48.188;11.566;2022-09-29T15:56:45;9.62;85.45
64111;DHT22;50401;48.188;11.566;2022-09-29T15:59:40;9.79;85.34
64111;DHT22;50401;48.188;11.566;2022-09-29T16:02:06;9.74;86.18
64111;DHT22;50401;48.188;11.566;2022-09-29T16:04:36;9.78;85.95
64111;DHT22;50401;48.188;11.566;2022-09-29T16:07:01;9.73;85.53
64111;DHT22;50401;48.188;11.566;2022-09-29T16:09:27;9.52;85.70
64111;DHT22;50401;48.188;11.566;2022-09-29T16:11:53;9.47;86.66
64111;DHT22;50401;48.188;11.566;2022-09-29T16:14:27;9.68;86.79
64111;DHT22;50401;48.188;11.566;2022-09-29T16:16:53;9.81;86.20
64111;DHT22;50401;48.188;11.566;2022-09-29T16:19:26;9.64;85.50
64111;DHT22;50401;48.188;11.566;2022-09-29T16:21:53;9.77;86.01
64111;DHT22;50401;48.188;11.566;2022-09-29T16:24:19;9.85;86.50
64111;DHT22;50401;48.188;11.566;2022-09-29T16:26:46;9.68;86.87
64111;DHT22;50401;48.188;11.566;2022-09-29T16:31:44;9.65;86.76
64111;DHT22;50401;48.188;11.566;2022-09-29T16:36:55;9.57;87.31
64111;DHT22;50401;48.188;11.566;2022-09-29T16:39:25;9.67;87.75
64111;DHT22;50401;48.188;11.566;2022-09-29T16:41:53;9.59;87.26
64111;DHT22;50401;48.188;11.566;2022-09-29T16:47:01;9.58;85.94
64111;DHT22;50401;48.188;11.566;2022-09-29T16:51:53;9.85;85.37
64111;DHT22;50401;48.188;11.566;2022-09-29T16:54:21;9.91;85.35
64111;DHT22;50401;48.188;11.566;2022-09-29T16:56:47;10.00;85.63
64111;DHT22;50401;48.188;11.566;2022-09-29T16:59:14;10.08;85.76
64111;DHT22;50401;48.188;11.566;2022-09-29T17:01:40;10.06;86.56
64111;DHT22;50401;48.188;11.566;2022-09-29T17:04:06;9.92;86.01
64111;DHT22;50401;48.188;11.566;2022-09-29T17:06:31;10.12;85.93
64111;DHT22;50401;48.188;11.566;2022-09-29T17:08:57;10.20;85.21
64111;DHT22;50401;48.188;11.566;2022-09-29T17:11:23;9.98;84.87
64111;DHT22;50401;48.188;11.566;2022-09-29T17:13:48;9.86;84.33
64111;DHT22;50401;48.188;11.566;2022-09-29T17:16:14;9.85;83.85
64111;DHT22;50401;48.188;11.566;2022-09-29T17:18:46;9.68;83.84
64111;DHT22;50401;48.188;11.566;2022-09-29T17:21:11;9.78;83.79
64111;DHT22;50401;48.188;11.566;2022-09-29T17:23:36;9.86;83.95
64111;DHT22;50401;48.188;11.566;2022-09-29T17:26:01;9.77;84.05
64111;DHT22;50401;48.188;11.566;2022-09-29T17:28:47;9.52;84.71
64111;DHT22;50401;48.188;11.566;2022-09-29T17:33:40;9.85;84.58
64111;DHT22;50401;48.188;11.566;2022-09-29T17:36:06;9.92;83.81
64111;DHT22;50401;48.188;11.566;2022-09-29T17:38:33;9.89;83.55
64111;DHT22;50401;48.188;11.566;2022-09-29T17:40:59;9.75;83.14
64111;DHT22;50401;48.188;11.566;2022-09-29T17:43:28;9.73;84.16
64111;DHT22;50401;48.188;11.566;2022-09-29T17:45:55;9.85;83.77
64111;DHT22;50401;48.188;11.566;2022-09-29T17:48:22;9.98;83.20
64111;DHT22;50401;48.188;11.566;2022-09-29T17:50:48;9.92;83.00
64111;DHT22;50401;48.188;11.566;2022-09-29T17:53:14;10.00;83.37
64111;DHT22;50401;48.188;11.566;2022-09-29T17:55:40;9.88;83.16
64111;DHT22;50401;48.188;11.566;2022-09-29T17:58:06;9.77;83.66
64111;DHT22;50401;48.188;11.566;2022-09-29T18:02:57;9.74;84.21
64111;DHT22;50401;48.188;11.566;2022-09-29T18:05:24;9.85;84.26
64111;DHT22;50401;48.188;11.566;2022-09-29T18:07:50;9.77;84.56
64111;DHT22;50401;48.188;11.566;2022-09-29T18:12:44;9.74;84.74
64111;DHT22;50401;48.188;11.566;2022-09-29T18:15:09;9.74;85.24
64111;DHT22;50401;48.188;11.566;2022-09-29T18:17:35;9.74;85.04
64111;DHT22;50401;48.188;11.566;2022-09-29T18:20:01;9.74;84.46
64111;DHT22;50401;48.188;11.566;2022-09-29T18:22:33;9.68;84.25
64111;DHT22;50401;48.188;11.566;2022-09-29T18:24:59;9.68;84.67
64111;DHT22;50401;48.188;11.566;2022-09-29T18:27:24;9.57;84.61